createdAt,value
2023-02-05T00:01:48.636Z,4.13
2023-02-05T00:04:17.394Z,5.20
2023-02-05T00:06:46.546Z,5.00
2023-02-05T00:09:15.598Z,4.60
2023-02-05T00:12:02.429Z,3.50
2023-02-05T00:14:32.587Z,3.53
2023-02-05T00:17:02.957Z,3.60
2023-02-05T00:19:31.341Z,3.33
2023-02-05T00:21:59.924Z,3.30
2023-02-05T00:24:28.447Z,3.67
2023-02-05T00:26:56.899Z,3.30
2023-02-05T00:29:25.445Z,3.53
2023-02-05T00:31:55.822Z,4.17
2023-02-05T00:34:27.508Z,3.40
2023-02-05T00:36:56.088Z,3.83
2023-02-05T00:39:24.736Z,3.77
2023-02-05T00:41:53.360Z,3.77
2023-02-05T00:44:22.354Z,3.93
2023-02-05T00:46:51.128Z,3.73
2023-02-05T00:49:21.794Z,3.53
2023-02-05T00:51:50.614Z,3.77
2023-02-05T00:54:19.349Z,3.80
2023-02-05T00:56:48.010Z,3.73
2023-02-05T00:59:17.178Z,4.10
2023-02-05T01:01:45.894Z,3.80
2023-02-05T01:04:14.686Z,3.70
2023-02-05T01:06:44.783Z,3.70
2023-02-05T01:09:13.333Z,3.73
2023-02-05T01:11:41.972Z,3.80
2023-02-05T01:14:10.485Z,3.20
2023-02-05T01:16:39.047Z,3.27
2023-02-05T01:19:07.464Z,3.77
2023-02-05T01:21:36.524Z,3.20
2023-02-05T01:24:08.220Z,3.23
2023-02-05T01:26:37.095Z,3.43
2023-02-05T01:29:05.622Z,3.67
2023-02-05T01:31:34.655Z,3.30
2023-02-05T01:34:03.117Z,3.20
2023-02-05T01:36:32.311Z,3.23
2023-02-05T01:39:00.708Z,3.23
2023-02-05T01:41:31.040Z,3.27
2023-02-05T01:44:22.478Z,3.70
2023-02-05T01:46:51.198Z,3.20
2023-02-05T01:49:20.922Z,3.73
2023-02-05T01:51:49.866Z,3.57
2023-02-05T01:54:18.572Z,3.50
2023-02-05T01:56:52.141Z,3.20
2023-02-05T01:59:21.734Z,3.00
2023-02-05T02:01:50.321Z,3.33
2023-02-05T02:04:21.362Z,3.00
2023-02-05T02:06:49.980Z,2.97
2023-02-05T02:09:18.886Z,3.70
2023-02-05T02:11:54.612Z,3.00
2023-02-05T02:14:26.309Z,3.70
2023-02-05T02:16:56.831Z,3.97
2023-02-05T02:19:36.564Z,3.53
2023-02-05T02:22:28.338Z,2.93
2023-02-05T02:25:24.319Z,3.20
2023-02-05T02:28:01.696Z,3.23
2023-02-05T02:30:35.603Z,3.03
2023-02-05T02:33:10.373Z,3.00
2023-02-05T02:35:49.101Z,3.73
2023-02-05T02:38:29.253Z,3.53
2023-02-05T02:41:03.667Z,3.27
2023-02-05T02:43:45.649Z,3.33
2023-02-05T02:46:23.144Z,3.53
2023-02-05T02:48:58.358Z,3.60
2023-02-05T02:51:32.579Z,3.23
2023-02-05T02:54:03.897Z,3.30
2023-02-05T02:56:37.044Z,3.63
2023-02-05T02:59:13.088Z,3.60
2023-02-05T03:01:52.327Z,3.60
2023-02-05T03:04:24.414Z,3.70
2023-02-05T03:06:54.551Z,3.60
2023-02-05T03:09:27.010Z,3.40
2023-02-05T03:11:55.702Z,3.77
2023-02-05T03:14:25.936Z,3.90
2023-02-05T03:16:55.055Z,3.33
2023-02-05T03:19:26.584Z,4.10
2023-02-05T03:21:57.834Z,3.73
2023-02-05T03:27:01.619Z,4.10
2023-02-05T03:29:32.894Z,4.00
2023-02-05T03:32:13.689Z,4.20
2023-02-05T03:37:36.575Z,3.83
2023-02-05T03:40:16.212Z,4.60
2023-02-05T03:42:59.969Z,4.53
2023-02-05T03:45:44.731Z,4.00
2023-02-05T03:48:23.600Z,3.83
2023-02-05T03:50:55.809Z,4.93
2023-02-05T03:53:30.465Z,4.50
2023-02-05T03:56:05.831Z,4.83
2023-02-05T03:58:39.818Z,4.77
2023-02-05T04:01:10.463Z,4.00
2023-02-05T04:03:39.066Z,4.57
2023-02-05T04:06:08.462Z,5.00
2023-02-05T04:08:37.660Z,4.80
2023-02-05T04:11:07.298Z,4.70
2023-02-05T04:13:35.476Z,4.93
2023-02-05T04:16:04.087Z,4.77
2023-02-05T04:18:34.647Z,5.03
2023-02-05T04:21:02.878Z,4.73
2023-02-05T04:23:31.415Z,5.60
2023-02-05T04:25:59.770Z,5.03
2023-02-05T04:28:28.457Z,4.40
2023-02-05T04:30:57.202Z,4.57
2023-02-05T04:33:25.908Z,3.87
2023-02-05T04:35:59.816Z,4.50
2023-02-05T04:38:28.437Z,4.90
2023-02-05T04:40:57.276Z,4.37
2023-02-05T04:43:26.098Z,4.50
2023-02-05T04:45:55.038Z,4.73
2023-02-05T04:48:23.597Z,4.97
2023-02-05T04:50:52.114Z,5.20
2023-02-05T04:53:22.804Z,5.97
2023-02-05T04:55:51.548Z,5.57
2023-02-05T04:58:21.600Z,5.00
2023-02-05T05:00:50.368Z,4.87
2023-02-05T05:03:19.375Z,5.00
2023-02-05T05:05:48.288Z,4.07
2023-02-05T05:08:16.753Z,4.97
2023-02-05T05:10:47.346Z,5.00
2023-02-05T05:13:15.914Z,4.97
2023-02-05T05:15:44.527Z,5.20
2023-02-05T05:18:13.235Z,4.80
2023-02-05T05:20:42.781Z,4.67
2023-02-05T05:23:11.551Z,5.03
2023-02-05T05:25:43.353Z,5.03
2023-02-05T05:28:13.609Z,4.87
2023-02-05T05:30:43.630Z,4.67
2023-02-05T05:33:12.550Z,4.63
2023-02-05T05:35:41.361Z,4.97
2023-02-05T05:38:12.747Z,4.60
2023-02-05T05:41:00.304Z,4.70
2023-02-05T05:43:48.777Z,4.60
2023-02-05T05:46:22.638Z,4.53
2023-02-05T05:48:59.001Z,4.27
2023-02-05T05:51:34.415Z,4.60
2023-02-05T05:54:06.878Z,4.73
2023-02-05T05:56:39.387Z,3.90
2023-02-05T05:59:54.306Z,3.83
2023-02-05T06:02:23.604Z,4.80
2023-02-05T06:04:53.973Z,4.63
2023-02-05T06:07:23.746Z,4.50
2023-02-05T06:09:55.211Z,4.57
2023-02-05T06:12:27.309Z,4.40
2023-02-05T06:14:58.428Z,4.23
2023-02-05T06:17:28.184Z,4.47
2023-02-05T06:19:59.878Z,4.63
2023-02-05T06:22:28.770Z,4.40
2023-02-05T06:24:59.085Z,5.20
2023-02-05T06:27:27.405Z,4.27
2023-02-05T06:29:57.644Z,4.37
2023-02-05T06:32:26.986Z,4.00
2023-02-05T06:34:56.628Z,3.83
2023-02-05T06:37:34.120Z,4.50
2023-02-05T06:40:15.620Z,3.83
2023-02-05T06:42:48.294Z,3.70
2023-02-05T06:45:18.715Z,4.17
2023-02-05T06:47:47.578Z,4.03
2023-02-05T06:50:16.127Z,3.73
2023-02-05T06:52:45.242Z,4.47
2023-02-05T06:55:13.895Z,4.23
2023-02-05T06:57:42.460Z,4.63
2023-02-05T07:00:11.760Z,4.13
2023-02-05T07:02:42.051Z,4.57
2023-02-05T07:05:10.460Z,4.20
2023-02-05T07:07:38.775Z,4.60
2023-02-05T07:10:07.332Z,4.40
2023-02-05T07:12:35.836Z,4.67
2023-02-05T07:15:03.815Z,3.90
2023-02-05T07:17:32.130Z,4.67
2023-02-05T07:20:01.921Z,4.23
2023-02-05T07:22:30.126Z,4.23
2023-02-05T07:24:59.256Z,4.27
2023-02-05T07:27:38.873Z,4.00
2023-02-05T07:30:08.089Z,4.23
2023-02-05T07:32:36.606Z,4.73
2023-02-05T07:35:22.315Z,4.17
2023-02-05T07:37:51.204Z,4.40
2023-02-05T07:40:19.700Z,4.17
2023-02-05T07:42:48.203Z,4.67
2023-02-05T07:45:17.698Z,4.70
2023-02-05T07:51:55.648Z,4.13
2023-02-05T07:54:27.135Z,5.17
2023-02-05T07:57:04.916Z,4.77
2023-02-05T07:59:36.244Z,4.47
2023-02-05T08:02:05.999Z,4.53
2023-02-05T08:04:35.022Z,5.00
2023-02-05T08:07:05.066Z,5.10
2023-02-05T08:09:34.496Z,4.43
2023-02-05T08:12:02.985Z,4.83
2023-02-05T08:14:32.010Z,4.53
2023-02-05T08:17:00.337Z,4.93
2023-02-05T08:19:34.897Z,5.03
2023-02-05T08:22:04.983Z,4.30
2023-02-05T08:24:33.388Z,4.53
2023-02-05T08:27:01.575Z,5.60
2023-02-05T08:29:36.920Z,5.73
2023-02-05T08:32:05.966Z,4.53
2023-02-05T08:34:34.618Z,3.77
2023-02-05T08:37:03.010Z,4.07
2023-02-05T08:39:34.544Z,4.13
2023-02-05T08:42:06.360Z,4.33
2023-02-05T08:44:42.772Z,4.30
2023-02-05T08:47:11.280Z,4.57
2023-02-05T08:49:39.866Z,4.33
2023-02-05T08:52:08.405Z,4.77
2023-02-05T08:54:38.625Z,4.40
2023-02-05T08:57:07.040Z,4.87
2023-02-05T08:59:35.503Z,3.90
2023-02-05T09:02:05.952Z,3.80
2023-02-05T09:04:36.242Z,4.37
2023-02-05T09:07:04.970Z,4.70
2023-02-05T09:09:48.585Z,3.27
2023-02-05T09:12:31.183Z,4.80
2023-02-05T09:15:00.636Z,4.30
2023-02-05T09:17:33.603Z,3.97
2023-02-05T09:20:23.057Z,3.57
2023-02-05T09:22:55.316Z,2.83
2023-02-05T09:25:39.198Z,3.40
2023-02-05T09:28:10.526Z,3.10
2023-02-05T09:30:45.543Z,3.43
2023-02-05T09:33:15.212Z,2.67
2023-02-05T09:35:44.278Z,3.20
2023-02-05T09:38:16.325Z,3.30
2023-02-05T09:41:01.156Z,3.30
2023-02-05T09:47:15.914Z,3.77
2023-02-05T10:06:15.942Z,3.73
2023-02-05T10:08:53.008Z,2.83
2023-02-05T10:11:33.574Z,3.00
2023-02-05T10:14:14.213Z,3.80
2023-02-05T10:17:19.651Z,3.33
2023-02-05T10:20:02.810Z,3.07
2023-02-05T10:22:45.414Z,2.70
2023-02-05T10:25:46.036Z,3.43
2023-02-05T10:29:00.230Z,3.07
2023-02-05T10:31:46.770Z,3.90
2023-02-05T10:34:52.533Z,2.70
2023-02-05T10:37:27.553Z,2.57
2023-02-05T10:39:59.518Z,3.10
2023-02-05T10:42:37.577Z,2.50
2023-02-05T10:45:08.672Z,3.03
2023-02-05T10:50:22.531Z,3.00
2023-02-05T10:52:53.557Z,2.80
2023-02-05T10:55:26.197Z,2.60
2023-02-05T10:57:55.130Z,2.17
2023-02-05T11:00:24.896Z,2.60
2023-02-05T11:02:58.979Z,2.73
2023-02-05T11:05:42.151Z,2.50
2023-02-05T11:08:43.130Z,2.83
2023-02-05T11:11:24.949Z,2.27
2023-02-05T11:14:00.775Z,2.23
2023-02-05T11:16:50.268Z,2.67
2023-02-05T11:22:08.192Z,2.30
2023-02-05T11:24:39.810Z,2.73
2023-02-05T11:27:57.825Z,3.00
2023-02-05T11:30:52.061Z,2.57
2023-02-05T11:33:27.882Z,3.30
2023-02-05T11:36:00.829Z,3.20
2023-02-05T11:38:35.371Z,2.40
2023-02-05T11:41:13.219Z,2.80
2023-02-05T11:43:55.859Z,2.60
2023-02-05T11:46:37.548Z,2.50
2023-02-05T11:49:07.977Z,2.27
2023-02-05T11:54:34.741Z,2.57
2023-02-05T11:57:15.461Z,2.13
2023-02-05T11:59:50.811Z,2.17
2023-02-05T12:02:36.953Z,2.73
2023-02-05T12:05:15.119Z,1.90
2023-02-05T12:07:49.054Z,2.00
2023-02-05T12:10:26.254Z,2.43
2023-02-05T12:13:06.177Z,2.07
2023-02-05T12:15:41.325Z,2.37
2023-02-05T12:18:29.885Z,2.97
2023-02-05T12:21:13.283Z,3.33
2023-02-05T12:24:02.071Z,3.33
2023-02-05T12:26:35.242Z,3.43
2023-02-05T12:29:20.867Z,2.90
2023-02-05T12:35:24.708Z,3.20
2023-02-05T12:38:27.290Z,2.30
2023-02-05T12:41:28.527Z,2.63
2023-02-05T12:46:50.677Z,2.77
2023-02-05T12:49:50.723Z,2.13
2023-02-05T12:57:52.624Z,1.97
2023-02-05T13:00:37.931Z,2.17
2023-02-05T13:03:26.617Z,2.53
2023-02-05T13:06:01.699Z,2.50
2023-02-05T13:08:42.831Z,2.30
2023-02-05T13:11:18.896Z,2.67
2023-02-05T13:13:54.093Z,2.70
2023-02-05T13:19:05.357Z,3.03
2023-02-05T13:25:10.288Z,3.10
2023-02-05T13:28:03.273Z,2.47
2023-02-05T13:33:42.473Z,2.97
2023-02-05T13:36:35.893Z,2.93
2023-02-05T13:39:26.435Z,3.23
2023-02-05T13:42:28.507Z,3.03
2023-02-05T13:45:34.062Z,4.03
2023-02-05T13:48:24.110Z,2.90
2023-02-05T13:51:24.346Z,2.87
2023-02-05T13:54:05.678Z,2.60
2023-02-05T13:56:48.792Z,3.23
2023-02-05T13:59:30.685Z,2.90
2023-02-05T14:02:02.086Z,3.37
2023-02-05T14:04:38.924Z,3.33
2023-02-05T14:07:18.804Z,3.43
2023-02-05T14:09:59.987Z,3.03
2023-02-05T14:12:31.582Z,3.60
2023-02-05T15:23:05.630Z,4.47
2023-02-05T16:16:14.084Z,6.47
2023-02-05T16:24:34.307Z,7.40
2023-02-05T17:36:26.882Z,7.90
2023-02-05T17:39:02.194Z,7.10
2023-02-05T20:18:44.173Z,7.30
2023-02-05T20:21:14.723Z,6.90
2023-02-05T20:23:49.879Z,6.60
2023-02-05T20:26:27.081Z,6.57
2023-02-05T20:29:15.267Z,7.37
2023-02-05T20:31:53.254Z,6.63
2023-02-05T20:37:42.597Z,5.90
2023-02-05T20:40:14.600Z,6.63
2023-02-05T20:42:43.782Z,6.00
2023-02-05T20:45:24.860Z,5.73
2023-02-05T20:47:54.901Z,5.80
2023-02-05T20:50:24.460Z,5.47
2023-02-05T20:52:55.933Z,5.70
2023-02-05T20:55:24.840Z,5.73
2023-02-05T20:57:53.451Z,5.50
2023-02-05T21:00:23.544Z,5.47
2023-02-05T21:02:52.349Z,5.97
2023-02-05T21:05:21.339Z,5.47
2023-02-05T21:07:50.349Z,6.40
2023-02-05T21:10:22.376Z,5.73
2023-02-05T21:12:51.025Z,6.40
2023-02-05T21:15:19.729Z,7.43
2023-02-05T21:17:48.250Z,6.93
2023-02-05T21:20:17.212Z,6.67
2023-02-05T21:22:45.856Z,6.77
2023-02-05T21:25:14.799Z,6.67
2023-02-05T21:27:46.182Z,6.37
2023-02-05T21:30:15.160Z,7.37
2023-02-05T21:32:43.905Z,7.13
2023-02-05T21:35:12.461Z,6.30
2023-02-05T21:37:43.696Z,6.37
2023-02-05T21:40:12.807Z,6.57
2023-02-05T21:42:41.384Z,6.67
2023-02-05T21:45:11.769Z,7.80
2023-02-05T21:47:41.135Z,6.17
2023-02-05T21:50:11.031Z,5.67
2023-02-05T22:52:08.421Z,6.47
2023-02-05T23:11:46.042Z,6.00
2023-02-05T23:19:40.667Z,4.77
2023-02-05T23:22:21.334Z,6.60
2023-02-05T23:25:04.363Z,4.60
2023-02-05T23:27:44.698Z,4.93
2023-02-05T23:30:18.769Z,4.73
2023-02-05T23:39:12.991Z,5.67
2023-02-05T23:41:52.375Z,5.30
2023-02-05T23:44:59.005Z,5.03
2023-02-05T23:54:54.490Z,5.20
2023-02-05T23:57:24.898Z,4.90
